x

Ne Bahamas - 350 Nm Ene Of Nassau, Bahamas (41047) Wave Buoy

2:50pm - Wed 22nd Oct 2014 All times are UTC.

  • Sig Wave height 3.0ft
  • Swell Direction
  • Peak Period 10s
  • Average Period 7s
  • Wind
    9mph, 11mph gusts
  • Sea Temp 82°f
  • Air Temp 80°f
  • Sea Pressure 1015.7mb

More Historic Weather Station data

Upgrade to MSW Pro to gain access to the past 30 days of data for over 8000 Wavebouys and Weather Stations around the globe.

Join Pro

Comparision Forecast

View Surf forecast
   
Wed 10/22 2:50pm 3ft 10s 7s 9 11 mph 1015.7mb 82f 80f
1:50pm 3ft 10s 7s 11 13 mph 1015.3mb 82f 80f
12:50pm 3.5ft 10s 7s 9 11 mph 1015mb 82f 80f
11:50am 3.5ft 8s 7s 9 11 mph 1014.4mb 82f 80f
10:50am 3.5ft 9s 7s 9
mph
1014.3mb 82f 80f
9:50am 4ft 8s 7s 7 9 mph 1014.1mb 82f 80f
8:50am 3.5ft 8s 7s 7 9 mph 1013.7mb 82f 80f
7:50am 3.5ft 8s 7s 9 11 mph 1013.8mb 82f 80f
6:50am 4ft 8s 7s 9
mph
1014mb 82f 79f
5:50am 3.5ft 8s 7s 7
mph
1014.4mb 82f 79f
4:50am 3.5ft 9s 6s 4 7 mph 1014.9mb 82f 79f
3:50am 4ft 8s 7s 4
mph
1015.4mb 82f 79f
2:50am 4ft 10s 6s 2 4 mph 1015.8mb 82f 79f
1:50am 4.5ft 9s 7s  -  2 mph 1015.9mb 82f 79f
12:50am 4ft 9s 6s 2 4 mph 1015.3mb 82f 79f
Tue 10/21 11:50pm 4ft 9s 7s  -  2 mph 1015.1mb 82f 79f
10:50pm 4.5ft 9s 7s  -  2 mph 1014.7mb 83f 79f
9:50pm 4ft 9s 7s 2 4 mph 1014.4mb 83f 79f
8:50pm 4ft 8s 7s 7 9 mph 1014mb 83f 79f
7:50pm 4ft 9s 7s 2 4 mph 1013.8mb 83f 80f
5:50pm 3.5ft 9s 7s 7
mph
1014.4mb 83f 80f
4:50pm 4ft 9s 7s 4 9 mph 1015.3mb 83f 80f
3:50pm 4ft 9s 7s 4 7 mph 1016.3mb 82f 80f
2:50pm 4.5ft 9s 7s 7 9 mph 1016.8mb 82f 80f
1:50pm 4.5ft 9s 7s 7
mph
1016.9mb 82f 80f
12:50pm 5ft 9s 7s 7 9 mph 1016.6mb 82f 80f
11:50am 5ft 10s 7s 4 7 mph 1016.2mb 82f 80f
10:50am 5ft 9s 7s 4 7 mph 1015.5mb 82f 79f
9:50am 5ft 9s 7s 7 9 mph 1015.2mb 82f 78f
8:50am 5ft 9s 7s 7 9 mph 1015mb 82f 78f
7:50am 5ft 8s 7s 4 9 mph 1015.4mb 82f 79f
6:50am 5ft 8s 7s 7 9 mph 1015.6mb 82f 79f
5:50am 5.5ft 9s 7s 7 9 mph 1016.4mb 82f 79f
4:50am 5.5ft 9s 7s 9 11 mph 1016.8mb 82f 79f
3:50am 5ft 8s 7s 9 11 mph 1017.2mb 82f 80f
2:50am 5.5ft 8s 7s 9 11 mph 1017.4mb 82f 80f
1:50am 5ft 8s 7s 7 9 mph 1017.2mb 82f 80f
12:50am 5ft 9s 7s 9 11 mph 1016.8mb 82f 80f
Mon 10/20 11:50pm 5ft 9s 7s 2 4 mph 1016.5mb 83f 79f
10:50pm 5ft 8s 7s 2 4 mph 1016.3mb 83f 78f
9:50pm 4.5ft 8s 7s 4 7 mph 1016.3mb 83f 79f
8:50pm 4.5ft 8s 6s 4 7 mph 1015.9mb 83f 80f
7:50pm 4.5ft 7s 6s 7 9 mph 1015.9mb 83f 80f
6:50pm 4.5ft 7s 6s 4 7 mph 1016mb 83f 80f
5:50pm 4ft 7s 6s 7 9 mph 1016.3mb 83f 80f
4:50pm 4.5ft 7s 6s 4 7 mph 1017.2mb 83f 80f
3:50pm 4.5ft 7s 6s 2 4 mph 1017.8mb 83f 80f
2:50pm 4ft 8s 7s 2 4 mph 1018.5mb 82f 79f
1:50pm 4ft 8s 7s  -  2 mph 1018.3mb 82f 81f
12:50pm 4ft 6s 6s  -  2 mph 1018.3mb 82f 80f
11:50am 3.5ft 6s 7s 2
mph
1017.6mb 82f 80f
10:50am 4ft 7s 7s  -  2 mph 1017.1mb 82f 79f
9:50am 4ft 9s 7s 2
mph
1016.4mb 82f 79f
8:50am 4ft 8s 6s 4 7 mph 1016mb 82f 79f
7:50am 4.5ft 9s 7s 7 9 mph 1015.7mb 82f 79f
6:50am 4ft 8s 7s 2
mph
1016mb 82f 79f
5:50am 3.5ft 8s 7s  -  2 mph 1016.6mb 82f 79f
3:50am 3.5ft 8s 7s 4 7 mph 1016.8mb 82f 79f
2:50am 4ft 8s 7s 4 9 mph 1016.6mb 82f 80f
1:50am 4ft 8s 7s 7
mph
1016.5mb 82f 80f
12:50am 4ft 9s 7s 7 9 mph 1016.1mb 82f 80f
Sun 10/19 11:50pm 3.5ft 11s 7s 4 9 mph 1015.8mb 82f 80f
10:50pm 4.5ft 9s 7s 7 9 mph 1015.4mb 83f 80f
9:50pm 4.5ft 9s 7s 7 9 mph 1015mb 83f 80f
8:50pm 4.5ft 9s 7s 9 11 mph 1014.9mb 83f 80f
7:50pm 5ft 10s 7s 9 11 mph 1014.8mb 83f 80f
6:50pm 4.5ft 10s 7s 9 11 mph 1014.6mb 83f 80f
5:50pm 5ft 10s 7s 4 7 mph 1014.7mb 83f 80f
4:50pm 4.5ft 9s 7s 4 7 mph 1015.1mb 83f 80f
3:50pm 4.5ft 10s 7s  -  7 mph 1015.8mb 83f 79f
2:50pm 5ft 8s 7s 2 4 mph 1015.9mb 82f 79f
1:50pm 4.5ft 8s 7s 4
mph
1016mb 82f 79f
12:50pm 4.5ft 9s 7s 4
mph
1016mb 82f 79f
11:50am 5ft 9s 7s 4 7 mph 1015.4mb 82f 79f
10:50am 6ft 10s 8s 4 7 mph 1014.8mb 82f 78f
9:50am 5.5ft 9s 7s 2 4 mph 1014.3mb 82f 78f
8:50am 6.5ft 10s 8s  -  2 mph 1013.9mb 82f 78f
7:50am 6.5ft 10s 8s  -  2 mph 1013.8mb 82f 78f
6:50am 6ft 10s 8s  -  2 mph 1014mb 82f 78f
5:50am 6ft 11s 8s  -  2 mph 1014.3mb 82f 78f
4:50am 5.5ft 11s 7s  -  4 mph 1014.6mb 82f 79f
3:50am 6ft 9s 8s 2 4 mph 1014.7mb 82f 79f
2:50am 7ft 11s 8s  -  2 mph 1015.2mb 82f 79f
1:50am 7ft 11s 8s  -  2 mph 1015mb 82f 79f
12:50am 6.5ft 11s 8s 2 4 mph 1014.9mb 82f 79f
Sat 10/18 11:50pm 8ft 11s 8s 4
mph
1014.2mb 82f 79f
10:50pm 7ft 11s 8s 4 7 mph 1013.4mb 82f 79f
9:50pm 6.5ft 11s 8s 4 7 mph 1012.9mb 83f 80f
8:50pm 7ft 11s 8s 7 9 mph 1012.7mb 83f 80f
7:50pm 6.5ft 10s 8s 4 7 mph 1012.6mb 83f 80f
6:50pm 7ft 11s 8s 4 7 mph 1012.6mb 83f 80f
5:50pm 7ft 11s 8s 4 7 mph 1013mb 83f 80f
4:50pm 7.5ft 11s 8s 4 7 mph 1013.5mb 82f 80f
3:50pm 7ft 12s 8s 7 9 mph 1013.8mb 82f 80f